KPHN/PHN METAR and TAF weather

Enter ICAO airport designator
Station Type Date Time Source
KPHN METAR 2019/04/23 03:57 UTC NOAA

KPHN 230357Z AUTO 16008KT 10SM CLR 12/05 A3002 RMK AO2


Station Type Date Time Source
KPHN Decoded METAR 2019/04/23 03:57 UTC NOAA

St. Clair County International, MI, United States (KPHN) 42-55N 082-32W
Apr 22, 2019 - 11:57 PM EDT / 2019.04.23 0357 UTC
Wind: from the SSE (160 degrees) at 9 MPH (8 KT):0
Visibility: 10 mile(s):0
Sky conditions: clear
Temperature: 53 F (12 C)
Dew Point: 41 F (5 C)
Relative Humidity: 62%
Pressure (altimeter): 30.02 in. Hg (1016 hPa)
ob: KPHN 230357Z AUTO 16008KT 10SM CLR 12/05 A3002 RMK AO2
cycle: 4

Station Type Date Time Source
KPHN TAF UTC NOAA

Error!

Example: see airport list